Rifle, CO

11:26 PM MDT on September 21, 2014 (GMT -0600)
RAWS RIFLE CO US | Change Station
CLOSE
Current Station
Personal Weather Station
Location: Rifle, CO
Elevation: 6120 ft
Nearby Weather Stations

Elev 6120 ft 39.51 °N, 107.75 °W | Updated 35 minutes ago

Rain
Rain
58 °F
Feels Like 58 °F
N
7
Wind Variable Wind from South
Gusts 13.0 mph

Today
High -- | Low -- °F
--% Chance of Precip.
Yesterday
High -- | Low -- °F
Precip. -- in
6:57 AM 7:09 PM
Waning Crescent, 4% visible
Pressure 30.12 in
Visibility 10.0 miles
Clouds Mostly Cloudy 11000 ft
Dew Point 56 °F
Humidity 94%
Rainfall 0.19 in
Snow Depth 6 in , 0 in , 0 in
UV 0 out of 12
Pollen 5.10 out of 12
Air Quality Not available.
Flu Activity Not available.
METAR KRIL 220453Z AUTO 16007KT 10SM BKN110 16/14 A3026 RMK AO2 RAE25 SLP197 P0000 T01610139

More Conditions Fewer Conditions

Pressure 30.12 in
Visibility 10.0 miles
Clouds Mostly Cloudy 11000 ft
Dew Point 56 °F
Humidity 94%
Rainfall 0.19 in
Snow Depth 6 in , 0 in , 0 in
UV 0 out of 12
Pollen 5.10 out of 12
Air Quality Not available.
Flu Activity Not available.
METAR KRIL 220453Z AUTO 16007KT 10SM BKN110 16/14 A3026 RMK AO2 RAE25 SLP197 P0000 T01610139

More Conditions Fewer Conditions

10-Day Weather Forecast

Almanac

Astronomy

Sep. 21, 2014 Rise Set
Actual Time 6:57 AM MDT 7:09 PM MDT
Civil Twilight 6:31 AM MDT 7:36 PM MDT
Nautical Twilight 5:59 AM MDT 8:07 PM MDT
Astronomical Twilight 5:27 AM MDT 8:39 PM MDT
Moon 4:34 AM MDT (9/21) 5:47 PM MDT (9/21)
Length of Visible Light 13h 05m
Length of Day
12h 11m
Tomorrow will be 2m 34s shorter.
Waning Crescent, 4% of the Moon is Illuminated
Sep 22
Waning Crescent
Sep 24
New
Oct 1
First Quarter
Oct 8
Full
Oct 15
Last Quarter

Yesterday's Extremes

State Highs State Lows

Community

WunderPhotos

Upload Photos

1,755,391 photos uploaded!

Nearby

Snow Depth

Station Depth Elevation
Rawah 6 in 9020 ft
Mancos 0 in 10000 ft
Buffalo Park 0 in 9240 ft
Buckskin Joe 0 in 11150 ft
Grayback 0 in 11620 ft

Earthquake Activity

City Distance Mag. Time & Date
No recent earthquake activity has been reported nearby.
Minimum magnitude displayed is 2.5.

Coastal Water Temperatures

Place Temperature
No Stations Reporting

Nearby Weather Stations